Time;durP1;ratioP1;P1;durP2;ratioP2;P2;SDS_P1;SDS_P2;PMS_P1;PMS_P2;Temp;Humidity;BMP_temperature;BMP_pressure;BME280_temperature;BME280_humidity;BME280_pressure;Samples;Min_cycle;Max_cycle;Signal;HPM_P1;HPM_P2
2022/10/22 00:00:26;;;;;;;;;;;;;;;11.15;100.00;100160.03;3058343;19;19932;-52
2022/10/22 00:01:28;;;;;;;;;;;;;;;11.16;100.00;100153.75;3058075;19;19923;-53
2022/10/22 00:02:32;;;;;;;;;;;;;;;11.18;100.00;100154.50;3057130;19;19938;-53
2022/10/22 00:03:34;;;;;;;;;;;;;;;11.21;100.00;100147.22;3057711;19;20472;-53
2022/10/22 00:04:39;;;;;;;;;;;;;;;11.22;100.00;100149.81;3058135;19;20019;-53
2022/10/22 00:05:41;;;;;;;;;;;;;;;11.23;100.00;100148.00;3057663;19;19942;-52
2022/10/22 00:06:45;;;;;;;;;;;;;;;11.24;100.00;100147.84;3057420;19;20027;-53
2022/10/22 00:07:47;;;;;;;;;;;;;;;11.25;100.00;100138.03;3057390;19;19923;-53
2022/10/22 00:08:51;;;;;;;;;;;;;;;11.27;100.00;100133.44;3057817;19;19922;-52
2022/10/22 00:09:53;;;;;;;;;;;;;;;11.28;100.00;100127.13;3058199;19;19923;-53
2022/10/22 00:10:58;;;;;;;;;;;;;;;11.30;100.00;100135.91;3057602;19;19926;-53
2022/10/22 00:12:00;;;;;;;;;;;;;;;11.31;100.00;100129.59;3058044;19;19918;-53
2022/10/22 00:13:04;;;;;;;;;;;;;;;11.33;100.00;100138.34;3057367;19;20298;-53
2022/10/22 00:14:06;;;;;;;;;;;;;;;11.33;100.00;100133.03;3058243;19;19919;-52
2022/10/22 00:15:10;;;;;;;;;;;;;;;11.34;100.00;100137.41;3057446;19;20342;-53
2022/10/22 00:16:12;;;;;;;;;;;;;;;11.35;100.00;100139.13;3058325;19;20295;-53
2022/10/22 00:17:16;;;;;;;;;;;;;;;11.36;100.00;100140.78;3057564;19;19950;-53
2022/10/22 00:18:18;;;;;;;;;;;;;;;11.38;100.00;100136.19;3057624;19;19915;-52
2022/10/22 00:19:23;;;;;;;;;;;;;;;11.39;100.00;100143.25;3057733;19;20504;-53
2022/10/22 00:20:24;;;;;;;;;;;;;;;11.40;100.00;100135.13;3057978;19;19919;-53
2022/10/22 00:21:29;;;;;;;;;;;;;;;11.42;100.00;100137.72;3057591;19;19926;-53
2022/10/22 00:22:31;;;;;;;;;;;;;;;11.42;100.00;100143.91;3057883;19;19922;-53
2022/10/22 00:23:35;;;;;;;;;;;;;;;11.44;100.00;100133.13;3057423;19;19982;-53
2022/10/22 00:24:38;;;;;;;;;;;;;;;11.45;100.00;100134.81;3057131;19;20007;-53
2022/10/22 00:25:43;;;;;;;;;;;;;;;11.46;100.00;100136.53;3057046;19;20074;-52
2022/10/22 00:26:44;;;;;;;;;;;;;;;11.44;100.00;100139.31;3057865;19;19936;-53
2022/10/22 00:27:49;;;;;;;;;;;;;;;11.44;100.00;100127.78;3057478;19;19936;-53
2022/10/22 00:28:51;;;;;;;;;;;;;;;11.42;100.00;100119.00;3057780;19;20596;-53
2022/10/22 00:29:56;;;;;;;;;;;;;;;11.45;100.00;100125.00;3057433;19;19915;-52
2022/10/22 00:30:58;;;;;;;;;;;;;;;11.47;100.00;100122.22;3057940;19;19915;-53
2022/10/22 00:32:03;;;;;;;;;;;;;;;11.47;100.00;100127.56;3057210;19;19922;-53
2022/10/22 00:33:05;;;;;;;;;;;;;;;11.47;100.00;100117.69;3056947;19;20051;-53
2022/10/22 00:34:09;;;;;;;;;;;;;;;11.47;100.00;100120.38;3056739;19;20302;-53
2022/10/22 00:35:11;;;;;;;;;;;;;;;11.46;100.00;100125.84;3058086;19;20002;-53
2022/10/22 00:36:16;;;;;;;;;;;;;;;11.47;100.00;100114.19;3057204;19;19961;-53
2022/10/22 00:37:18;;;;;;;;;;;;;;;11.49;100.00;100120.25;3057779;19;20484;-53
2022/10/22 00:38:22;;;;;;;;;;;;;;;11.49;100.00;100120.25;3057202;19;19939;-53
2022/10/22 00:39:27;;;;;;;;;;;;;;;11.50;100.00;100111.28;3057704;19;19929;-53
2022/10/22 00:40:29;;;;;;;;;;;;;;;11.50;100.00;100113.97;3057474;19;19919;-53
2022/10/22 00:41:33;;;;;;;;;;;;;;;11.50;100.00;100111.28;3057885;19;19919;-53
2022/10/22 00:42:35;;;;;;;;;;;;;;;11.50;100.00;100116.63;3057434;19;20343;-53
2022/10/22 00:43:58;;;;;;;;;;;;;;;11.51;100.00;100110.31;3057613;19;19927;-53
2022/10/22 00:45:00;;;;;;;;;;;;;;;11.53;100.00;100116.41;3057518;19;19930;-53
2022/10/22 00:46:06;;;;;;;;;;;;;;;11.53;100.00;100114.59;3057362;19;19923;-53
2022/10/22 00:47:08;;;;;;;;;;;;;;;11.55;100.00;100114.50;3057326;19;19919;-53
2022/10/22 00:48:13;;;;;;;;;;;;;;;11.55;100.00;100114.50;3056961;19;19907;-54
2022/10/22 00:49:15;;;;;;;;;;;;;;;11.55;100.00;100110.00;3057457;19;19915;-53
2022/10/22 00:50:28;;;;;;;;;;;;;;;11.56;100.00;100110.88;3057152;19;19931;-53
2022/10/22 00:51:31;;;;;;;;;;;;;;;11.58;100.00;100113.44;3057655;19;19934;-53
2022/10/22 00:52:35;;;;;;;;;;;;;;;11.59;100.00;100117.81;3056460;19;19919;-53
2022/10/22 00:53:41;;;;;;;;;;;;;;;11.59;100.00;100116.00;3056568;19;19930;-53
2022/10/22 00:54:43;;;;;;;;;;;;;;;11.59;100.00;100105.31;3056419;19;19922;-53
2022/10/22 00:55:48;;;;;;;;;;;;;;;11.64;100.00;100112.97;3056694;19;19954;-52
2022/10/22 00:56:50;;;;;;;;;;;;;;;11.61;100.00;100114.03;3057284;19;20576;-53
2022/10/22 00:57:55;;;;;;;;;;;;;;;11.63;100.00;100101.44;3056145;19;20350;-53
2022/10/22 00:58:58;;;;;;;;;;;;;;;11.64;100.00;100102.28;3056577;19;20634;-53
2022/10/22 01:00:02;;;;;;;;;;;;;;;11.64;100.00;100103.13;3057291;19;19934;-53
2022/10/22 01:01:04;;;;;;;;;;;;;;;11.64;100.00;100095.13;3055980;19;19918;-53
2022/10/22 01:02:09;;;;;;;;;;;;;;;11.65;100.00;100094.16;3056566;19;19923;-53
2022/10/22 01:03:11;;;;;;;;;;;;;;;11.66;100.00;100090.53;3056110;19;20270;-53
2022/10/22 01:04:15;;;;;;;;;;;;;;;11.67;100.00;100097.56;3056360;19;20269;-52
2022/10/22 01:05:17;;;;;;;;;;;;;;;11.66;100.00;100090.53;3056440;19;19930;-53
2022/10/22 01:06:32;;;;;;;;;;;;;;;11.70;100.00;100101.84;3057191;19;19922;-53
2022/10/22 01:07:36;;;;;;;;;;;;;;;11.69;100.00;100092.97;3057163;19;19939;-52
2022/10/22 01:08:49;;;;;;;;;;;;;;;11.69;100.00;100090.31;3056382;19;20003;-53
2022/10/22 01:09:56;;;;;;;;;;;;;;;11.71;100.00;100095.56;3056485;19;19925;-54
2022/10/22 01:11:07;;;;;;;;;;;;;;;11.70;100.00;100091.16;3057638;19;20014;-53
2022/10/22 01:12:12;;;;;;;;;;;;;;;11.70;100.00;100086.69;3057661;19;19954;-53
2022/10/22 01:13:24;;;;;;;;;;;;;;;11.70;100.00;100091.16;3056169;19;19915;-52
2022/10/22 01:14:34;;;;;;;;;;;;;;;11.70;100.00;100086.69;3056592;19;19927;-52
2022/10/22 01:15:54;;;;;;;;;;;;;;;11.70;100.00;100081.31;3056618;19;19915;-53
2022/10/22 01:17:02;;;;;;;;;;;;;;;11.69;100.00;100084.97;3057508;19;19923;-53
2022/10/22 01:18:10;;;;;;;;;;;;;;;11.68;100.00;100080.59;3056912;19;19926;-52
2022/10/22 01:19:24;;;;;;;;;;;;;;;11.69;100.00;100082.28;3056600;19;19919;-53
2022/10/22 01:20:47;;;;;;;;;;;;;;;11.65;100.00;100075.44;3056542;19;19959;-53
2022/10/22 01:21:51;;;;;;;;;;;;;;;11.71;100.00;100083.00;3056387;19;19929;-53
2022/10/22 01:23:02;;;;;;;;;;;;;;;11.71;100.00;100076.84;3056963;19;20342;-52
2022/10/22 01:24:03;;;;;;;;;;;;;;;11.72;100.00;100084.72;3056827;19;19915;-53
2022/10/22 01:25:27;;;;;;;;;;;;;;;11.72;100.00;100079.38;3056311;19;19927;-53
2022/10/22 01:26:37;;;;;;;;;;;;;;;11.74;100.00;100080.13;3056856;19;19947;-52
2022/10/22 01:27:54;;;;;;;;;;;;;;;11.75;100.00;100067.59;3056893;19;19950;-52
2022/10/22 01:29:09;;;;;;;;;;;;;;;11.76;100.00;100075.56;3056236;19;19927;-53
2022/10/22 01:30:14;;;;;;;;;;;;;;;11.76;100.00;100075.56;3055580;19;19923;-53
2022/10/22 01:31:16;;;;;;;;;;;;;;;11.76;100.00;100070.22;3056261;19;19960;-53
2022/10/22 01:32:22;;;;;;;;;;;;;;;11.77;100.00;100079.09;3056076;19;19933;-53
2022/10/22 01:33:24;;;;;;;;;;;;;;;11.75;100.00;100073.84;3055970;19;19915;-53
2022/10/22 01:34:29;;;;;;;;;;;;;;;11.75;100.00;100073.84;3055533;19;19923;-53
2022/10/22 01:35:31;;;;;;;;;;;;;;;11.77;100.00;100076.41;3055959;19;20310;-53
2022/10/22 01:36:37;;;;;;;;;;;;;;;11.77;100.00;100071.06;3054986;19;19946;-53
2022/10/22 01:37:43;;;;;;;;;;;;;;;11.77;100.00;100071.91;3055944;19;19947;-53
2022/10/22 01:38:47;;;;;;;;;;;;;;;11.78;100.00;100072.78;3056013;19;20579;-53
2022/10/22 01:39:49;;;;;;;;;;;;;;;11.78;100.00;100072.78;3056147;19;19919;-53
2022/10/22 01:40:54;;;;;;;;;;;;;;;11.76;100.00;100075.56;3055590;19;19923;-52
2022/10/22 01:41:56;;;;;;;;;;;;;;;11.76;100.00;100075.56;3056007;19;20303;-53
2022/10/22 01:43:07;;;;;;;;;;;;;;;11.77;100.00;100076.41;3055682;19;19915;-53
2022/10/22 01:44:27;;;;;;;;;;;;;;;11.77;100.00;100077.25;3057042;19;19931;-53
2022/10/22 01:45:35;;;;;;;;;;;;;;;11.78;100.00;100078.97;3056820;19;19935;-53
2022/10/22 01:46:37;;;;;;;;;;;;;;;11.79;100.00;100078.00;3055598;19;19915;-53
2022/10/22 01:47:51;;;;;;;;;;;;;;;11.78;100.00;100070.09;3055224;19;19915;-52
2022/10/22 01:48:57;;;;;;;;;;;;;;;11.77;100.00;100068.38;3055486;19;19915;-53
2022/10/22 01:50:14;;;;;;;;;;;;;;;11.77;100.00;100074.59;3055938;19;20314;-53
2022/10/22 01:51:16;;;;;;;;;;;;;;;11.75;100.00;100068.50;3055649;19;20618;-52
2022/10/22 01:52:26;;;;;;;;;;;;;;;11.77;100.00;100066.56;3056811;19;19922;-53
2022/10/22 01:53:46;;;;;;;;;;;;;;;11.79;100.00;100069.13;3056592;19;19978;-52
2022/10/22 01:54:54;;;;;;;;;;;;;;;11.79;100.00;100064.63;3056263;19;19926;-52
2022/10/22 01:56:14;;;;;;;;;;;;;;;11.79;100.00;100064.63;3056042;19;19960;-53
2022/10/22 01:57:27;;;;;;;;;;;;;;;11.77;100.00;100058.56;3056148;19;20050;-53
2022/10/22 01:58:36;;;;;;;;;;;;;;;11.77;100.00;100055.88;3055669;19;19915;-52
2022/10/22 01:59:59;;;;;;;;;;;;;;;11.77;100.00;100055.88;3055285;19;20475;-53
2022/10/22 02:01:10;;;;;;;;;;;;;;;11.77;100.00;100047.84;3056005;19;20015;-53
2022/10/22 02:02:17;;;;;;;;;;;;;;;11.74;100.00;100034.69;3056915;19;19950;-52
2022/10/22 02:03:21;;;;;;;;;;;;;;;11.76;100.00;100043.47;3056545;19;20328;-52
2022/10/22 02:04:30;;;;;;;;;;;;;;;11.77;100.00;100042.50;3056824;19;19922;-53
2022/10/22 02:05:32;;;;;;;;;;;;;;;11.77;100.00;100039.84;3055621;19;19923;-53
2022/10/22 02:06:36;;;;;;;;;;;;;;;11.77;100.00;100039.84;3055774;19;20047;-53
2022/10/22 02:07:40;;;;;;;;;;;;;;;11.78;100.00;100040.69;3054952;19;19963;-52
2022/10/22 02:08:45;;;;;;;;;;;;;;;11.78;100.00;100030.00;3055688;19;20364;-53
2022/10/22 02:09:47;;;;;;;;;;;;;;;11.78;100.00;100041.53;3055597;19;19927;-52
2022/10/22 02:10:51;;;;;;;;;;;;;;;11.78;100.00;100036.19;3055627;19;19934;-53
2022/10/22 02:11:53;;;;;;;;;;;;;;;11.78;100.00;100038.88;3055297;19;20334;-52
2022/10/22 02:12:58;;;;;;;;;;;;;;;11.79;100.00;100042.41;3055503;19;20384;-53
2022/10/22 02:14:00;;;;;;;;;;;;;;;11.79;100.00;100045.94;3055237;19;19919;-53
2022/10/22 02:15:05;;;;;;;;;;;;;;;11.78;100.00;100036.19;3055761;19;19923;-52
2022/10/22 02:16:08;;;;;;;;;;;;;;;11.78;100.00;100038.88;3055387;19;19926;-53
2022/10/22 02:17:15;;;;;;;;;;;;;;;11.78;100.00;100036.19;3055342;19;19952;-53
2022/10/22 02:18:17;;;;;;;;;;;;;;;11.77;100.00;100039.84;3055076;19;19926;-53
2022/10/22 02:19:27;;;;;;;;;;;;;;;11.78;100.00;100046.03;3055785;19;20356;-53
2022/10/22 02:20:30;;;;;;;;;;;;;;;11.76;100.00;100032.78;3055509;19;20468;-54
2022/10/22 02:21:35;;;;;;;;;;;;;;;11.78;100.00;100041.53;3055732;19;19929;-53
2022/10/22 02:22:37;;;;;;;;;;;;;;;11.79;100.00;100043.25;3055118;19;19911;-53
2022/10/22 02:23:42;;;;;;;;;;;;;;;11.78;100.00;100032.66;3056545;19;19943;-53
2022/10/22 02:24:43;;;;;;;;;;;;;;;11.81;100.00;100045.81;3055481;19;19955;-53
2022/10/22 02:25:49;;;;;;;;;;;;;;;11.81;100.00;100030.63;3056442;19;20261;-53
2022/10/22 02:26:51;;;;;;;;;;;;;;;11.82;100.00;100043.03;3055164;19;20270;-53
2022/10/22 02:28:16;;;;;;;;;;;;;;;11.82;100.00;100037.69;3054316;19;19919;-53
2022/10/22 02:29:19;;;;;;;;;;;;;;;11.83;100.00;100044.72;3055391;19;19933;-53
2022/10/22 02:30:23;;;;;;;;;;;;;;;11.82;100.00;100043.03;3056038;19;20000;-53
2022/10/22 02:31:27;;;;;;;;;;;;;;;11.83;100.00;100039.38;3055333;19;19919;-53
2022/10/22 02:32:33;;;;;;;;;;;;;;;11.84;100.00;100040.22;3055140;19;19919;-53
2022/10/22 02:33:40;;;;;;;;;;;;;;;11.84;100.00;100046.44;3056262;19;19935;-53
2022/10/22 02:34:44;;;;;;;;;;;;;;;11.83;100.00;100039.38;3055218;19;19939;-53
2022/10/22 02:35:46;;;;;;;;;;;;;;;11.83;100.00;100039.38;3053606;19;19918;-53
2022/10/22 02:36:50;;;;;;;;;;;;;;;11.84;100.00;100048.25;3054485;19;19943;-53
2022/10/22 02:37:53;;;;;;;;;;;;;;;11.84;100.00;100046.44;3055309;19;19919;-53
2022/10/22 02:38:57;;;;;;;;;;;;;;;11.84;100.00;100046.44;3054746;19;19968;-53
2022/10/22 02:39:59;;;;;;;;;;;;;;;11.84;100.00;100043.75;3055586;19;19947;-53
2022/10/22 02:41:03;;;;;;;;;;;;;;;11.83;100.00;100044.72;3055713;19;19938;-53
2022/10/22 02:43:41;;;;;;;;;;;;;;;11.83;100.00;100039.38;3052178;19;19922;-55
2022/10/22 02:44:43;;;;;;;;;;;;;;;11.85;100.00;100052.63;3054306;19;19919;-53
2022/10/22 02:45:47;;;;;;;;;;;;;;;11.85;100.00;100042.78;3054423;19;19927;-53
2022/10/22 02:46:49;;;;;;;;;;;;;;;11.86;100.00;100046.31;3055912;19;19922;-53
2022/10/22 02:47:54;;;;;;;;;;;;;;;11.87;100.00;100040.00;3055384;19;19923;-54
2022/10/22 02:48:55;;;;;;;;;;;;;;;11.85;100.00;100040.13;3056756;19;19918;-53
2022/10/22 02:50:00;;;;;;;;;;;;;;;11.87;100.00;100046.22;3059473;19;20035;-54
2022/10/22 02:51:03;;;;;;;;;;;;;;;11.87;100.00;100040.84;3059355;19;19914;-53
2022/10/22 02:52:07;;;;;;;;;;;;;;;11.88;100.00;100034.53;3058836;19;20317;-53
2022/10/22 02:53:09;;;;;;;;;;;;;;;11.90;100.00;100040.63;3059105;19;19943;-53
2022/10/22 02:54:14;;;;;;;;;;;;;;;11.92;100.00;100037.84;3059129;19;19926;-53
2022/10/22 02:55:15;;;;;;;;;;;;;;;11.93;100.00;100041.38;3059247;19;19950;-53
2022/10/22 02:56:20;;;;;;;;;;;;;;;11.92;100.00;100047.69;3058810;19;20246;-53
2022/10/22 02:57:22;;;;;;;;;;;;;;;11.91;100.00;100041.50;3059358;19;19911;-53
2022/10/22 02:58:26;;;;;;;;;;;;;;;11.89;100.00;100036.25;3058812;19;19918;-53
2022/10/22 02:59:30;;;;;;;;;;;;;;;11.88;100.00;100031.88;3059227;19;19919;-53
2022/10/22 03:00:32;;;;;;;;;;;;;;;11.88;100.00;100034.53;3058863;19;19931;-53
2022/10/22 03:01:37;;;;;;;;;;;;;;;11.88;100.00;100031.03;3059103;19;19923;-53
2022/10/22 03:02:38;;;;;;;;;;;;;;;11.88;100.00;100037.22;3059128;19;19927;-53
2022/10/22 03:03:43;;;;;;;;;;;;;;;11.88;100.00;100042.56;3059901;19;20362;-53
2022/10/22 03:04:45;;;;;;;;;;;;;;;11.88;100.00;100031.03;3058843;19;19911;-53
2022/10/22 03:05:49;;;;;;;;;;;;;;;11.88;100.00;100037.22;3058951;19;19923;-53
2022/10/22 03:06:51;;;;;;;;;;;;;;;11.88;100.00;100026.53;3058701;19;19923;-53
2022/10/22 03:07:55;;;;;;;;;;;;;;;11.87;100.00;100024.81;3058474;19;19923;-53
2022/10/22 03:08:57;;;;;;;;;;;;;;;11.90;100.00;100032.63;3058971;19;19938;-53
2022/10/22 03:10:01;;;;;;;;;;;;;;;11.88;100.00;100023.00;3059023;19;20358;-53
2022/10/22 03:11:03;;;;;;;;;;;;;;;11.88;100.00;100023.84;3058922;19;20719;-53
2022/10/22 03:12:08;;;;;;;;;;;;;;;11.87;100.00;100027.50;3059071;19;19950;-53
2022/10/22 03:13:10;;;;;;;;;;;;;;;11.88;100.00;100025.66;3058449;19;20608;-53
2022/10/22 03:14:14;;;;;;;;;;;;;;;11.88;100.00;100020.31;3059085;19;19919;-53
2022/10/22 03:15:16;;;;;;;;;;;;;;;11.88;100.00;100015.81;3058811;19;19946;-53
2022/10/22 03:16:20;;;;;;;;;;;;;;;11.88;100.00;100010.47;3058825;19;19945;-53
2022/10/22 03:17:22;;;;;;;;;;;;;;;11.88;100.00;100012.31;3058892;19;19915;-53
2022/10/22 03:18:26;;;;;;;;;;;;;;;11.88;100.00;100014.97;3058663;19;20007;-53
2022/10/22 03:19:28;;;;;;;;;;;;;;;11.88;100.00;100014.97;3058607;19;19927;-53
2022/10/22 03:20:33;;;;;;;;;;;;;;;11.89;100.00;100016.69;3058619;19;19923;-53
2022/10/22 03:21:36;;;;;;;;;;;;;;;11.88;100.00;100015.81;3058734;19;20328;-53
2022/10/22 03:22:40;;;;;;;;;;;;;;;11.88;100.00;100012.31;3058012;19;19918;-53
2022/10/22 03:23:42;;;;;;;;;;;;;;;11.89;100.00;100009.53;3057864;19;19959;-53
2022/10/22 03:24:48;;;;;;;;;;;;;;;11.89;100.00;100006.84;3058662;19;20004;-53
2022/10/22 03:25:49;;;;;;;;;;;;;;;11.88;100.00;100010.47;3058514;19;19923;-53
2022/10/22 03:26:54;;;;;;;;;;;;;;;11.87;100.00;100011.44;3058710;19;19923;-53
2022/10/22 03:27:56;;;;;;;;;;;;;;;11.88;100.00;100013.16;3058392;19;20022;-53
2022/10/22 03:29:00;;;;;;;;;;;;;;;11.87;100.00;100014.13;3056840;19;19947;-53
2022/10/22 03:30:02;;;;;;;;;;;;;;;11.86;100.00;100017.75;3057863;19;19929;-53
2022/10/22 03:31:07;;;;;;;;;;;;;;;11.87;100.00;100013.25;3057963;19;19951;-53
2022/10/22 03:32:09;;;;;;;;;;;;;;;11.88;100.00;100023.84;3057581;19;19922;-53
2022/10/22 03:33:13;;;;;;;;;;;;;;;11.88;100.00;100023.00;3058569;19;19930;-53
2022/10/22 03:34:15;;;;;;;;;;;;;;;11.88;100.00;100023.00;3058430;19;19927;-54
2022/10/22 03:35:19;;;;;;;;;;;;;;;11.88;100.00;100029.19;3057380;19;19942;-54
2022/10/22 03:36:24;;;;;;;;;;;;;;;11.88;100.00;100026.53;3060342;19;19939;-53
2022/10/22 03:37:25;;;;;;;;;;;;;;;11.87;100.00;100019.47;3058094;19;20066;-53
2022/10/22 03:38:30;;;;;;;;;;;;;;;11.89;100.00;100038.06;3057942;19;20253;-53
2022/10/22 03:39:32;;;;;;;;;;;;;;;11.89;100.00;100033.59;3058355;19;19922;-53
2022/10/22 03:40:36;;;;;;;;;;;;;;;11.92;100.00;100034.31;3057401;19;19919;-53
2022/10/22 03:41:38;;;;;;;;;;;;;;;11.92;100.00;100037.84;3057894;19;19952;-53
2022/10/22 03:42:43;;;;;;;;;;;;;;;11.93;100.00;100039.56;3057790;19;19922;-53
2022/10/22 03:43:48;;;;;;;;;;;;;;;11.93;100.00;100033.38;3058546;19;19922;-53
2022/10/22 03:44:53;;;;;;;;;;;;;;;11.93;100.00;100034.22;3057571;19;19922;-53
2022/10/22 03:45:54;;;;;;;;;;;;;;;11.93;100.00;100041.38;3057833;19;19978;-53
2022/10/22 03:46:59;;;;;;;;;;;;;;;11.93;100.00;100033.38;3056595;19;19923;-53
2022/10/22 03:48:03;;;;;;;;;;;;;;;11.92;100.00;100042.34;3058479;19;20338;-53
2022/10/22 03:49:07;;;;;;;;;;;;;;;11.91;100.00;100030.78;3057320;19;19943;-53
2022/10/22 03:50:09;;;;;;;;;;;;;;;11.89;100.00;100028.22;3058602;19;19930;-53
2022/10/22 03:51:14;;;;;;;;;;;;;;;11.89;100.00;100020.22;3058306;19;19922;-53
2022/10/22 03:52:16;;;;;;;;;;;;;;;11.89;100.00;100020.22;3058160;19;19983;-53
2022/10/22 03:53:20;;;;;;;;;;;;;;;11.90;100.00;100011.22;3057907;19;20365;-53
2022/10/22 03:54:22;;;;;;;;;;;;;;;11.90;100.00;100008.56;3058574;19;19933;-53
2022/10/22 03:55:26;;;;;;;;;;;;;;;11.90;100.00;100003.22;3058275;19;19925;-53
2022/10/22 03:56:28;;;;;;;;;;;;;;;11.92;100.00;100003.09;3058509;19;19939;-53
2022/10/22 03:57:32;;;;;;;;;;;;;;;11.92;100.00;100016.47;3057856;19;19939;-53
2022/10/22 03:58:34;;;;;;;;;;;;;;;11.93;100.00;100014.66;3058098;19;19918;-53
2022/10/22 03:59:40;;;;;;;;;;;;;;;11.91;100.00;100014.75;3056419;19;20448;-53
2022/10/22 04:00:42;;;;;;;;;;;;;;;11.90;100.00;100021.94;3057804;19;19929;-53
2022/10/22 04:01:46;;;;;;;;;;;;;;;11.90;100.00;100029.94;3057651;19;19919;-53
2022/10/22 04:02:48;;;;;;;;;;;;;;;11.88;100.00;100026.53;3057881;19;20671;-53
2022/10/22 04:03:52;;;;;;;;;;;;;;;11.87;100.00;100035.50;3057382;19;20271;-53
2022/10/22 04:04:54;;;;;;;;;;;;;;;11.87;100.00;100035.50;3057976;19;20273;-53
2022/10/22 04:06:02;;;;;;;;;;;;;;;11.84;100.00;100029.53;3057779;19;19939;-53
2022/10/22 04:07:05;;;;;;;;;;;;;;;11.82;100.00;100021.66;3057868;19;20035;-53
2022/10/22 04:08:09;;;;;;;;;;;;;;;11.80;100.00;100018.22;3057525;19;19918;-53
2022/10/22 04:09:11;;;;;;;;;;;;;;;11.78;100.00;100017.47;3057416;19;19932;-52
2022/10/22 04:10:15;;;;;;;;;;;;;;;11.76;100.00;100011.41;3057782;19;19915;-53
2022/10/22 04:11:17;;;;;;;;;;;;;;;11.73;100.00;100006.22;3057611;19;20383;-53
2022/10/22 04:12:21;;;;;;;;;;;;;;;11.71;100.00;100008.16;3057769;19;20261;-53
2022/10/22 04:13:23;;;;;;;;;;;;;;;11.69;100.00;100012.78;3057443;19;19919;-54
2022/10/22 04:14:28;;;;;;;;;;;;;;;11.68;100.00;100003.06;3057847;19;20287;-53
2022/10/22 04:15:29;;;;;;;;;;;;;;;11.68;100.00;100002.22;3057363;19;20353;-53
2022/10/22 04:16:34;;;;;;;;;;;;;;;11.67;100.00;100006.69;3057738;19;19919;-53
2022/10/22 04:17:35;;;;;;;;;;;;;;;11.65;100.00;99991.75;3057244;19;19923;-53
2022/10/22 04:18:40;;;;;;;;;;;;;;;11.63;100.00;99999.88;3057660;19;19927;-53
2022/10/22 04:19:42;;;;;;;;;;;;;;;11.62;100.00;99987.47;3057430;19;19925;-53
2022/10/22 04:20:46;;;;;;;;;;;;;;;11.61;100.00;99985.75;3057562;19;19918;-53
2022/10/22 04:21:48;;;;;;;;;;;;;;;11.59;100.00;99976.16;3056653;19;19919;-53
2022/10/22 04:22:53;;;;;;;;;;;;;;;11.57;100.00;99968.25;3056703;19;19925;-53
2022/10/22 04:23:54;;;;;;;;;;;;;;;11.57;100.00;99962.91;3057299;19;19986;-55
2022/10/22 04:24:59;;;;;;;;;;;;;;;11.57;100.00;99965.59;3057738;19;20006;-53
2022/10/22 04:26:01;;;;;;;;;;;;;;;11.55;100.00;99963.03;3057304;19;19947;-53
2022/10/22 04:27:06;;;;;;;;;;;;;;;11.55;100.00;99954.16;3057722;19;19926;-54
2022/10/22 04:28:08;;;;;;;;;;;;;;;11.54;100.00;99953.31;3058439;19;19940;-53
2022/10/22 04:29:12;;;;;;;;;;;;;;;11.53;100.00;99956.94;3057030;19;20532;-53
2022/10/22 04:30:17;;;;;;;;;;;;;;;11.54;100.00;99947.09;3057234;19;20374;-53
2022/10/22 04:31:22;;;;;;;;;;;;;;;11.52;100.00;99939.19;3057551;19;19919;-54
2022/10/22 04:32:25;;;;;;;;;;;;;;;11.52;100.00;99938.34;3057089;19;19978;-53
2022/10/22 04:33:29;;;;;;;;;;;;;;;11.51;100.00;99940.16;3057046;19;20002;-53
2022/10/22 04:34:31;;;;;;;;;;;;;;;11.50;100.00;99934.94;3056849;19;19978;-53
2022/10/22 04:35:39;;;;;;;;;;;;;;;11.48;100.00;99929.69;3057432;19;20341;-53
2022/10/22 04:36:41;;;;;;;;;;;;;;;11.50;100.00;99924.25;3057395;19;19919;-53
2022/10/22 04:37:45;;;;;;;;;;;;;;;11.49;100.00;99910.03;3057317;19;19926;-53
2022/10/22 04:38:50;;;;;;;;;;;;;;;11.50;100.00;99903.72;3057248;19;19919;-53
2022/10/22 04:39:55;;;;;;;;;;;;;;;11.52;100.00;99916.97;3057467;19;20314;-53
2022/10/22 04:41:07;;;;;;;;;;;;;;;11.53;100.00;99913.34;3057118;19;19926;-53
2022/10/22 04:42:11;;;;;;;;;;;;;;;11.52;100.00;99911.63;3057285;19;19923;-53
2022/10/22 04:43:13;;;;;;;;;;;;;;;11.54;100.00;99915.03;3056277;19;19937;-53
2022/10/22 04:44:17;;;;;;;;;;;;;;;11.54;100.00;99915.03;3056538;19;20061;-53
2022/10/22 04:45:19;;;;;;;;;;;;;;;11.55;100.00;99927.44;3058713;19;20337;-53
2022/10/22 04:46:24;;;;;;;;;;;;;;;11.55;100.00;99922.94;3057907;19;19934;-53
2022/10/22 04:47:26;;;;;;;;;;;;;;;11.57;100.00;99925.50;3057051;19;19911;-53
2022/10/22 04:48:30;;;;;;;;;;;;;;;11.58;100.00;99923.69;3057612;19;20019;-53
2022/10/22 04:49:34;;;;;;;;;;;;;;;11.58;100.00;99927.22;3056912;19;19918;-53
2022/10/22 04:50:36;;;;;;;;;;;;;;;11.59;100.00;99928.06;3057473;19;20031;-53
2022/10/22 04:51:42;;;;;;;;;;;;;;;11.57;100.00;99925.50;3057755;19;19930;-53
2022/10/22 04:52:43;;;;;;;;;;;;;;;11.58;100.00;99927.22;3056922;19;20364;-53
2022/10/22 04:53:48;;;;;;;;;;;;;;;11.59;100.00;99931.59;3057223;19;19922;-53
2022/10/22 04:54:50;;;;;;;;;;;;;;;11.63;100.00;99932.19;3057380;19;19922;-53
2022/10/22 04:55:54;;;;;;;;;;;;;;;11.62;100.00;99926.00;3056912;19;19944;-53
2022/10/22 04:56:56;;;;;;;;;;;;;;;11.63;100.00;99930.38;3057416;19;19933;-53
2022/10/22 04:58:00;;;;;;;;;;;;;;;11.65;100.00;99933.78;3056755;19;20513;-53
2022/10/22 04:59:03;;;;;;;;;;;;;;;11.67;100.00;99929.19;3055510;19;19918;-53
2022/10/22 05:00:08;;;;;;;;;;;;;;;11.69;100.00;99924.59;3055654;19;20277;-53
2022/10/22 05:01:14;;;;;;;;;;;;;;;11.71;100.00;99922.63;3057983;19;19919;-53
2022/10/22 05:02:18;;;;;;;;;;;;;;;11.73;100.00;99931.38;3056818;19;20062;-53
2022/10/22 05:03:20;;;;;;;;;;;;;;;11.74;100.00;99933.09;3056904;19;19926;-53
2022/10/22 05:04:24;;;;;;;;;;;;;;;11.77;100.00;99930.22;3057001;19;20510;-53
2022/10/22 05:05:26;;;;;;;;;;;;;;;11.79;100.00;99935.47;3054582;19;20410;-53
2022/10/22 05:06:31;;;;;;;;;;;;;;;11.80;100.00;99931.81;3056480;19;20377;-53
2022/10/22 05:07:33;;;;;;;;;;;;;;;11.83;100.00;99932.44;3056092;19;19918;-53
2022/10/22 05:08:37;;;;;;;;;;;;;;;11.84;100.00;99936.81;3057128;19;19919;-53
2022/10/22 05:09:39;;;;;;;;;;;;;;;11.84;100.00;99934.13;3056828;19;19923;-54
2022/10/22 05:10:44;;;;;;;;;;;;;;;11.85;100.00;99935.84;3056178;19;19926;-53
2022/10/22 05:11:47;;;;;;;;;;;;;;;11.87;100.00;99938.41;3054679;19;19949;-53
2022/10/22 05:12:52;;;;;;;;;;;;;;;11.87;100.00;99944.59;3057629;19;19991;-54
2022/10/22 05:13:55;;;;;;;;;;;;;;;11.87;100.00;99947.28;3056967;19;19922;-53
2022/10/22 05:14:59;;;;;;;;;;;;;;;11.88;100.00;99961.50;3056917;19;20334;-53
2022/10/22 05:16:01;;;;;;;;;;;;;;;11.88;100.00;99957.00;3056656;19;20348;-53
2022/10/22 05:17:05;;;;;;;;;;;;;;;11.87;100.00;99949.97;3057093;19;19940;-53
2022/10/22 05:18:07;;;;;;;;;;;;;;;11.86;100.00;99958.94;3056538;19;19919;-53
2022/10/22 05:19:14;;;;;;;;;;;;;;;11.87;100.00;99955.31;3056852;19;19919;-53
2022/10/22 05:20:16;;;;;;;;;;;;;;;11.86;100.00;99964.28;3054183;19;19919;-54
2022/10/22 05:21:21;;;;;;;;;;;;;;;11.88;100.00;99967.72;3057299;19;20011;-53
2022/10/22 05:22:23;;;;;;;;;;;;;;;11.87;100.00;99971.34;3057692;19;20423;-53
2022/10/22 05:23:27;;;;;;;;;;;;;;;11.88;100.00;99961.50;3057641;19;19915;-53
2022/10/22 05:24:29;;;;;;;;;;;;;;;11.87;100.00;99971.34;3056234;19;19926;-53
2022/10/22 05:25:34;;;;;;;;;;;;;;;11.87;100.00;99970.50;3057010;19;19919;-53
2022/10/22 05:26:38;;;;;;;;;;;;;;;11.86;100.00;99974.97;3056977;19;19936;-54
2022/10/22 05:27:40;;;;;;;;;;;;;;;11.85;100.00;99967.94;3056013;19;19974;-53
2022/10/22 05:28:45;;;;;;;;;;;;;;;11.85;100.00;99970.59;3058194;19;20010;-53
2022/10/22 05:29:47;;;;;;;;;;;;;;;11.85;100.00;99967.94;3057565;19;20431;-53